createdAt,value
2022-11-03T00:02:13.421Z,99449.00
2022-11-03T00:04:44.520Z,99446.59
2022-11-03T00:07:15.549Z,99449.47
2022-11-03T00:09:45.902Z,99450.81
2022-11-03T00:12:15.904Z,99453.81
2022-11-03T00:14:44.213Z,99445.81
2022-11-03T00:17:14.315Z,99439.94
2022-11-03T00:19:42.418Z,99439.47
2022-11-03T00:22:11.733Z,99434.97
2022-11-03T00:24:39.852Z,99438.72
2022-11-03T00:27:09.153Z,99427.66
2022-11-03T00:29:37.198Z,99429.41
2022-11-03T00:32:05.900Z,99431.66
2022-11-03T00:34:35.983Z,99431.19
2022-11-03T00:37:04.425Z,99437.88
2022-11-03T00:39:32.720Z,99444.72
2022-11-03T00:42:01.458Z,99441.63
2022-11-03T00:44:30.420Z,99437.41
2022-11-03T00:47:00.092Z,99434.19
2022-11-03T00:49:28.455Z,99431.00
2022-11-03T00:51:58.506Z,99423.25
2022-11-03T00:54:26.716Z,99410.50
2022-11-03T00:56:55.829Z,99408.53
2022-11-03T00:59:24.585Z,99410.53
2022-11-03T01:01:53.480Z,99413.44
2022-11-03T01:04:41.519Z,99412.31
2022-11-03T01:07:12.880Z,99404.78
2022-11-03T01:09:43.506Z,99410.63
2022-11-03T01:12:13.198Z,99400.22
2022-11-03T01:14:43.330Z,99393.31
2022-11-03T01:17:14.157Z,99390.91
2022-11-03T01:19:43.105Z,99379.19
2022-11-03T01:22:14.347Z,99386.72
2022-11-03T01:24:44.724Z,99380.28
2022-11-03T01:27:15.163Z,99380.34
2022-11-03T01:29:43.439Z,99374.69
2022-11-03T01:32:12.635Z,99369.69
2022-11-03T01:34:41.105Z,99363.66
2022-11-03T01:37:09.731Z,99378.63
2022-11-03T01:39:39.790Z,99370.06
2022-11-03T01:42:07.892Z,99353.19
2022-11-03T01:44:38.629Z,99352.09
2022-11-03T01:47:15.364Z,99351.66
2022-11-03T01:49:49.721Z,99349.03
2022-11-03T01:52:22.752Z,99345.88
2022-11-03T01:55:00.001Z,99336.34
2022-11-03T01:57:37.179Z,99338.06
2022-11-03T02:00:10.260Z,99328.69
2022-11-03T02:02:38.883Z,99326.28
2022-11-03T02:05:09.620Z,99335.50
2022-11-03T02:07:47.032Z,99320.69
2022-11-03T02:10:17.789Z,99328.25
2022-11-03T02:12:46.276Z,99322.13
2022-11-03T02:15:18.916Z,99313.00
2022-11-03T02:17:49.399Z,99318.47
2022-11-03T02:20:20.945Z,99309.44
2022-11-03T02:23:25.305Z,99305.41
2022-11-03T02:25:57.013Z,99304.84
2022-11-03T02:28:27.701Z,99301.44
2022-11-03T02:31:05.463Z,99288.13
2022-11-03T02:33:45.570Z,99282.66
2022-11-03T02:36:19.893Z,99270.06
2022-11-03T02:38:55.495Z,99275.06
2022-11-03T02:41:27.219Z,99271.16
2022-11-03T02:43:57.147Z,99270.78
2022-11-03T02:46:29.907Z,99275.53
2022-11-03T02:48:58.417Z,99273.38
2022-11-03T02:51:27.124Z,99268.09
2022-11-03T02:54:06.041Z,99263.41
2022-11-03T02:56:38.703Z,99270.22
2022-11-03T02:59:11.424Z,99276.97
2022-11-03T03:01:48.211Z,99267.06
2022-11-03T03:04:25.358Z,99267.47
2022-11-03T03:07:01.923Z,99259.22
2022-11-03T03:09:36.263Z,99261.13
2022-11-03T03:12:10.079Z,99259.22
2022-11-03T03:14:41.386Z,99255.75
2022-11-03T03:17:15.827Z,99257.53
2022-11-03T03:19:50.872Z,99259.13
2022-11-03T03:22:26.181Z,99268.75
2022-11-03T03:25:01.426Z,99256.81
2022-11-03T03:27:36.029Z,99249.44
2022-11-03T03:30:07.018Z,99239.81
2022-11-03T03:32:38.965Z,99235.72
2022-11-03T03:35:11.784Z,99239.53
2022-11-03T03:37:45.831Z,99227.63
2022-11-03T03:40:21.615Z,99224.63
2022-11-03T03:43:20.330Z,99224.81
2022-11-03T03:45:53.976Z,99219.66
2022-11-03T03:48:23.339Z,99218.81
2022-11-03T03:50:52.587Z,99214.78
2022-11-03T03:53:21.568Z,99215.56
2022-11-03T03:55:53.794Z,99210.84
2022-11-03T03:58:24.217Z,99210.31
2022-11-03T04:00:52.806Z,99213.44
2022-11-03T04:03:23.588Z,99209.66
2022-11-03T04:05:52.778Z,99208.78
2022-11-03T04:08:21.454Z,99212.44
2022-11-03T04:11:04.223Z,99207.59
2022-11-03T04:14:03.272Z,99213.63
2022-11-03T04:16:48.498Z,99207.06
2022-11-03T04:19:34.143Z,99205.44
2022-11-03T04:22:21.714Z,99200.88
2022-11-03T04:24:52.602Z,99203.44
2022-11-03T04:27:30.186Z,99201.72
2022-11-03T04:30:03.807Z,99191.81
2022-11-03T04:32:35.308Z,99190.09
2022-11-03T04:35:16.000Z,99189.91
2022-11-03T04:37:47.439Z,99187.50
2022-11-03T04:40:18.184Z,99189.22
2022-11-03T04:42:48.142Z,99183.53
2022-11-03T04:45:24.723Z,99192.06
2022-11-03T04:47:54.230Z,99185.78
2022-11-03T04:50:24.968Z,99183.31
2022-11-03T04:52:57.392Z,99177.84
2022-11-03T04:55:27.267Z,99178.53
2022-11-03T04:57:59.663Z,99178.22
2022-11-03T05:00:29.593Z,99169.03
2022-11-03T05:02:57.882Z,99167.19
2022-11-03T05:05:27.520Z,99174.78
2022-11-03T05:07:58.250Z,99170.34
2022-11-03T05:10:29.558Z,99166.56
2022-11-03T05:12:59.325Z,99157.50
2022-11-03T05:15:37.270Z,99160.59
2022-11-03T05:18:17.555Z,99154.88
2022-11-03T05:20:51.426Z,99155.06
2022-11-03T05:23:21.840Z,99144.41
2022-11-03T05:25:52.631Z,99140.66
2022-11-03T05:28:27.676Z,99143.38
2022-11-03T05:30:58.229Z,99138.69
2022-11-03T05:33:32.508Z,99132.31
2022-11-03T05:36:09.798Z,99130.81
2022-11-03T05:38:37.871Z,99133.75
2022-11-03T05:41:13.855Z,99132.34
2022-11-03T05:43:42.513Z,99135.91
2022-11-03T05:46:13.599Z,99136.91
2022-11-03T05:48:44.166Z,99137.59
2022-11-03T05:51:20.168Z,99142.09
2022-11-03T05:53:53.346Z,99137.09
2022-11-03T05:56:25.560Z,99137.22
2022-11-03T05:58:57.581Z,99134.47
2022-11-03T06:01:32.255Z,99141.19
2022-11-03T06:04:15.942Z,99133.59
2022-11-03T06:06:44.126Z,99131.03
2022-11-03T06:09:17.589Z,99121.69
2022-11-03T06:11:46.753Z,99120.81
2022-11-03T06:14:24.104Z,99120.22
2022-11-03T06:16:58.664Z,99116.88
2022-11-03T06:19:31.511Z,99127.50
2022-11-03T06:22:03.780Z,99120.38
2022-11-03T06:24:39.339Z,99124.31
2022-11-03T06:27:07.780Z,99121.66
2022-11-03T06:29:36.214Z,99124.06
2022-11-03T06:32:12.061Z,99115.06
2022-11-03T06:34:47.822Z,99119.31
2022-11-03T06:37:24.472Z,99119.38
2022-11-03T06:39:59.781Z,99115.47
2022-11-03T06:42:32.118Z,99105.41
2022-11-03T06:45:02.648Z,99099.63
2022-11-03T06:47:32.539Z,99099.34
2022-11-03T06:50:01.989Z,99091.94
2022-11-03T06:52:35.111Z,99085.50
2022-11-03T06:55:23.075Z,99079.63
2022-11-03T06:57:55.987Z,99082.75
2022-11-03T07:00:39.657Z,99072.81
2022-11-03T07:03:19.735Z,99082.38
2022-11-03T07:05:48.929Z,99073.41
2022-11-03T07:08:24.124Z,99077.78
2022-11-03T07:11:00.241Z,99076.25
2022-11-03T07:13:30.428Z,99067.16
2022-11-03T07:15:59.856Z,99060.88
2022-11-03T07:18:35.598Z,99053.03
2022-11-03T07:21:08.271Z,99048.91
2022-11-03T07:23:37.105Z,99046.44
2022-11-03T07:26:10.157Z,99050.75
2022-11-03T07:28:40.467Z,99048.41
2022-11-03T07:31:17.978Z,99047.09
2022-11-03T07:33:48.591Z,99031.50
2022-11-03T07:36:22.153Z,99030.50
2022-11-03T07:38:53.218Z,99039.22
2022-11-03T07:41:28.153Z,99034.47
2022-11-03T07:44:02.203Z,99035.94
2022-11-03T07:46:33.663Z,99038.38
2022-11-03T07:49:04.908Z,99025.66
2022-11-03T07:51:35.106Z,99024.78
2022-11-03T07:54:11.766Z,99022.28
2022-11-03T07:56:44.531Z,99022.28
2022-11-03T07:59:17.966Z,99008.19
2022-11-03T08:01:49.491Z,99001.03
2022-11-03T08:04:24.097Z,98990.88
2022-11-03T08:06:52.784Z,98984.00
2022-11-03T08:09:22.614Z,98987.13
2022-11-03T08:11:51.606Z,98977.16
2022-11-03T08:14:20.261Z,98976.94
2022-11-03T08:16:48.426Z,98971.00
2022-11-03T08:19:16.572Z,98969.03
2022-11-03T08:21:47.293Z,98964.66
2022-11-03T08:24:15.582Z,98960.69
2022-11-03T08:26:45.013Z,98948.69
2022-11-03T08:29:13.229Z,98947.00
2022-11-03T08:31:41.664Z,98936.66
2022-11-03T08:34:10.290Z,98927.44
2022-11-03T08:36:39.429Z,98934.22
2022-11-03T08:39:12.943Z,98930.13
2022-11-03T08:41:42.099Z,98927.59
2022-11-03T08:44:10.473Z,98924.13
2022-11-03T08:46:38.598Z,98904.81
2022-11-03T08:49:06.881Z,98892.53
2022-11-03T08:51:36.994Z,98877.09
2022-11-03T08:54:08.441Z,98880.59
2022-11-03T08:56:46.846Z,98870.66
2022-11-03T08:59:18.885Z,98881.59
2022-11-03T09:01:48.019Z,98872.00
2022-11-03T09:04:19.019Z,98885.59
2022-11-03T09:06:47.413Z,98890.34
2022-11-03T09:12:07.386Z,98881.44
2022-11-03T09:14:35.851Z,98869.63
2022-11-03T09:17:04.330Z,98867.75
2022-11-03T09:19:32.703Z,98859.13
2022-11-03T09:22:03.308Z,98838.28
2022-11-03T09:24:32.495Z,98832.97
2022-11-03T09:27:02.552Z,98843.94
2022-11-03T09:29:51.530Z,98853.25
2022-11-03T09:32:23.560Z,98843.13
2022-11-03T09:34:51.985Z,98841.50
2022-11-03T09:37:24.748Z,98845.91
2022-11-03T09:39:53.441Z,98848.78
2022-11-03T09:42:22.252Z,98827.53
2022-11-03T09:44:53.737Z,98816.31
2022-11-03T09:47:25.420Z,98816.00
2022-11-03T09:49:54.102Z,98807.63
2022-11-03T09:52:25.006Z,98809.75
2022-11-03T09:54:56.391Z,98801.00
2022-11-03T09:57:28.784Z,98790.88
2022-11-03T09:59:59.154Z,98788.44
2022-11-03T10:02:30.242Z,98788.06
2022-11-03T10:05:01.341Z,98778.25
2022-11-03T10:07:33.627Z,98770.78
2022-11-03T10:10:02.968Z,98772.09
2022-11-03T10:12:37.194Z,98768.75
2022-11-03T10:15:15.770Z,98764.97
2022-11-03T10:17:46.361Z,98746.75
2022-11-03T10:20:17.144Z,98740.97
2022-11-03T10:22:47.358Z,98736.75
2022-11-03T10:25:35.770Z,98736.88
2022-11-03T10:28:16.162Z,98730.59
2022-11-03T10:31:11.251Z,98720.47
2022-11-03T10:33:42.255Z,98711.88
2022-11-03T10:36:25.368Z,98708.28
2022-11-03T10:38:54.069Z,98712.94
2022-11-03T10:41:23.579Z,98697.00
2022-11-03T10:44:04.648Z,98693.28
2022-11-03T10:46:51.470Z,98685.78
2022-11-03T10:49:21.316Z,98667.44
2022-11-03T10:51:52.769Z,98661.78
2022-11-03T10:54:23.622Z,98661.28
2022-11-03T10:56:53.298Z,98646.41
2022-11-03T10:59:24.304Z,98633.22
2022-11-03T11:01:54.418Z,98617.94
2022-11-03T11:04:23.184Z,98610.31
2022-11-03T11:06:52.750Z,98609.09
2022-11-03T11:09:25.747Z,98614.38
2022-11-03T11:12:01.424Z,98623.09
2022-11-03T11:14:52.955Z,98622.00
2022-11-03T11:17:50.375Z,98621.22
2022-11-03T11:20:34.405Z,98619.31
2022-11-03T11:23:48.444Z,98597.94
2022-11-03T11:26:31.455Z,98589.84
2022-11-03T11:29:47.256Z,98592.16
2022-11-03T11:32:59.795Z,98586.78
2022-11-03T11:36:06.728Z,98574.72
2022-11-03T11:39:12.099Z,98571.22
2022-11-03T11:42:09.471Z,98566.84
2022-11-03T11:44:57.214Z,98552.84
2022-11-03T11:47:49.110Z,98547.66
2022-11-03T11:50:31.923Z,98544.81
2022-11-03T11:53:15.541Z,98534.16
2022-11-03T11:55:56.925Z,98523.16
2022-11-03T11:58:30.861Z,98520.56
2022-11-03T12:01:02.562Z,98511.16
2022-11-03T12:03:35.109Z,98499.19
2022-11-03T12:06:05.358Z,98491.25
2022-11-03T12:08:34.815Z,98494.75
2022-11-03T12:11:06.058Z,98493.00
2022-11-03T12:13:44.137Z,98489.56
2022-11-03T12:16:28.720Z,98487.84
2022-11-03T12:18:59.753Z,98488.06
2022-11-03T12:21:50.430Z,98501.91
2022-11-03T12:24:36.409Z,98491.00
2022-11-03T12:27:18.484Z,98486.91
2022-11-03T12:29:46.715Z,98493.78
2022-11-03T12:32:32.434Z,98478.63
2022-11-03T12:35:03.023Z,98473.34
2022-11-03T12:37:33.096Z,98474.13
2022-11-03T12:40:04.048Z,98474.53
2022-11-03T12:42:33.776Z,98458.84
2022-11-03T12:45:04.272Z,98454.34
2022-11-03T12:47:32.537Z,98461.69
2022-11-03T12:50:01.229Z,98457.84
2022-11-03T12:52:29.423Z,98450.91
2022-11-03T12:54:59.230Z,98455.16
2022-11-03T12:57:27.532Z,98447.75
2022-11-03T12:59:56.022Z,98442.16
2022-11-03T13:02:24.943Z,98424.66
2022-11-03T13:04:53.442Z,98423.69
2022-11-03T13:07:27.789Z,98411.38
2022-11-03T13:10:00.518Z,98390.63
2022-11-03T13:12:36.836Z,98389.28
2022-11-03T13:15:10.278Z,98386.28
2022-11-03T13:17:59.682Z,98385.31
2022-11-03T13:20:29.690Z,98385.06
2022-11-03T13:23:00.584Z,98384.19
2022-11-03T13:25:30.609Z,98379.78
2022-11-03T13:27:59.884Z,98371.59
2022-11-03T13:30:28.986Z,98371.84
2022-11-03T13:32:57.070Z,98353.31
2022-11-03T13:35:27.308Z,98350.97
2022-11-03T13:37:55.429Z,98342.16
2022-11-03T13:43:15.736Z,98348.78
2022-11-03T13:45:44.532Z,98350.84
2022-11-03T13:51:04.041Z,98341.63
2022-11-03T13:56:22.402Z,98351.16
2022-11-03T14:01:43.058Z,98322.38
2022-11-03T14:07:01.676Z,98289.75
2022-11-03T14:09:31.063Z,98286.34
2022-11-03T14:12:16.616Z,98287.63
2022-11-03T14:14:50.696Z,98273.63
2022-11-03T14:17:21.102Z,98275.47
2022-11-03T14:19:52.706Z,98273.03
2022-11-03T14:22:24.636Z,98265.66
2022-11-03T14:24:53.972Z,98254.63
2022-11-03T14:27:23.029Z,98257.09
2022-11-03T14:29:52.812Z,98259.59
2022-11-03T14:32:22.372Z,98235.16
2022-11-03T14:34:50.505Z,98219.22
2022-11-03T14:37:19.076Z,98234.06
2022-11-03T14:39:47.909Z,98220.72
2022-11-03T14:42:16.806Z,98227.03
2022-11-03T14:44:48.987Z,98216.09
2022-11-03T14:47:21.998Z,98210.75
2022-11-03T14:49:53.866Z,98205.31
2022-11-03T14:52:23.397Z,98200.00
2022-11-03T14:54:52.308Z,98193.59
2022-11-03T14:57:23.204Z,98185.34
2022-11-03T14:59:53.539Z,98176.94
2022-11-03T15:02:23.919Z,98171.22
2022-11-03T15:04:53.367Z,98167.00
2022-11-03T15:07:21.909Z,98156.25
2022-11-03T15:09:50.525Z,98164.22
2022-11-03T15:12:19.713Z,98155.94
2022-11-03T15:14:48.326Z,98147.72
2022-11-03T15:17:17.590Z,98140.16
2022-11-03T15:19:47.576Z,98127.44
2022-11-03T15:22:17.074Z,98147.00
2022-11-03T15:27:33.857Z,98149.47
2022-11-03T15:30:03.172Z,98139.97
2022-11-03T15:32:36.258Z,98135.09
2022-11-03T15:35:07.087Z,98146.00
2022-11-03T15:37:35.288Z,98133.84
2022-11-03T15:40:03.787Z,98143.25
2022-11-03T15:42:32.309Z,98136.66
2022-11-03T15:45:00.942Z,98148.41
2022-11-03T15:47:29.759Z,98151.06
2022-11-03T15:49:58.265Z,98147.97
2022-11-03T15:52:28.372Z,98137.34
2022-11-03T15:54:56.776Z,98134.81
2022-11-03T15:57:24.923Z,98133.81
2022-11-03T15:59:55.342Z,98133.00
2022-11-03T16:02:42.345Z,98130.03
2022-11-03T16:05:11.572Z,98119.72
2022-11-03T16:07:41.636Z,98115.09
2022-11-03T16:10:10.301Z,98115.38
2022-11-03T16:12:39.663Z,98115.09
2022-11-03T16:15:11.049Z,98110.34
2022-11-03T16:17:44.351Z,98101.66
2022-11-03T16:20:15.364Z,98105.03
2022-11-03T16:22:45.608Z,98092.47
2022-11-03T16:25:16.775Z,98080.28
2022-11-03T16:27:47.319Z,98073.41
2022-11-03T16:30:16.482Z,98078.31
2022-11-03T16:32:51.461Z,98073.00
2022-11-03T16:35:20.679Z,98078.16
2022-11-03T16:37:51.075Z,98072.84
2022-11-03T16:40:21.964Z,98071.31
2022-11-03T16:42:50.149Z,98070.47
2022-11-03T16:45:20.447Z,98056.06
2022-11-03T16:47:50.995Z,98055.78
2022-11-03T16:50:20.210Z,98059.09
2022-11-03T16:52:51.366Z,98070.84
2022-11-03T16:55:20.859Z,98052.28
2022-11-03T16:57:49.607Z,98055.78
2022-11-03T17:00:22.118Z,98052.84
2022-11-03T17:02:51.374Z,98051.72
2022-11-03T17:05:21.280Z,98043.78
2022-11-03T17:07:53.897Z,98045.00
2022-11-03T17:10:25.224Z,98034.66
2022-11-03T17:12:56.510Z,98044.94
2022-11-03T17:15:24.940Z,98032.25
2022-11-03T17:17:53.474Z,98041.03
2022-11-03T17:20:21.969Z,98036.56
2022-11-03T17:22:53.360Z,98029.84
2022-11-03T17:25:22.026Z,98037.25
2022-11-03T17:27:52.981Z,98032.34
2022-11-03T17:30:24.121Z,98021.31
2022-11-03T17:32:54.663Z,98021.25
2022-11-03T17:35:26.124Z,98040.44
2022-11-03T17:37:56.672Z,98036.25
2022-11-03T17:40:26.666Z,98032.34
2022-11-03T17:42:56.962Z,98024.13
2022-11-03T17:45:27.007Z,98022.44
2022-11-03T17:47:55.530Z,98035.38
2022-11-03T17:50:25.893Z,98031.97
2022-11-03T17:52:56.414Z,98021.22
2022-11-03T17:55:29.243Z,98025.50
2022-11-03T17:58:00.942Z,98016.59
2022-11-03T18:00:29.937Z,98003.47
2022-11-03T18:02:59.814Z,97990.38
2022-11-03T18:05:31.616Z,97979.78
2022-11-03T18:08:04.885Z,97971.81
2022-11-03T18:10:36.036Z,97964.09
2022-11-03T18:13:16.803Z,97960.97
2022-11-03T18:15:47.598Z,97965.31
2022-11-03T18:18:19.209Z,97957.88
2022-11-03T18:20:53.464Z,97947.75
2022-11-03T18:23:25.222Z,97940.97
2022-11-03T18:25:54.736Z,97941.59
2022-11-03T18:28:23.128Z,97933.09
2022-11-03T18:30:54.710Z,97923.47
2022-11-03T18:33:28.776Z,97924.16
2022-11-03T18:35:56.925Z,97926.34
2022-11-03T18:38:27.718Z,97914.25
2022-11-03T18:40:55.972Z,97906.81
2022-11-03T18:43:26.743Z,97904.63
2022-11-03T18:45:54.869Z,97902.94
2022-11-03T18:48:24.242Z,97899.72
2022-11-03T18:50:54.402Z,97906.72
2022-11-03T18:53:28.257Z,97896.97
2022-11-03T18:56:02.584Z,97891.03
2022-11-03T18:58:31.183Z,97888.16
2022-11-03T19:01:00.427Z,97878.09
2022-11-03T19:03:29.440Z,97877.25
2022-11-03T19:06:00.244Z,97865.09
2022-11-03T19:08:33.247Z,97862.44
2022-11-03T19:11:04.042Z,97857.97
2022-11-03T19:13:36.726Z,97845.13
2022-11-03T19:16:13.476Z,97848.06
2022-11-03T19:18:42.673Z,97840.78
2022-11-03T19:21:14.555Z,97854.53
2022-11-03T19:23:47.982Z,97854.63
2022-11-03T19:26:22.411Z,97856.31
2022-11-03T19:28:54.606Z,97865.38
2022-11-03T19:31:26.957Z,97876.09
2022-11-03T19:33:57.852Z,97884.06
2022-11-03T19:36:27.348Z,97893.53
2022-11-03T19:39:02.259Z,97901.94
2022-11-03T19:41:48.919Z,97912.53
2022-11-03T19:44:17.319Z,97922.34
2022-11-03T19:46:46.293Z,97925.28
2022-11-03T19:49:16.171Z,97932.16
2022-11-03T19:51:44.810Z,97935.88
2022-11-03T19:54:18.995Z,97951.78
2022-11-03T19:56:49.016Z,97954.63
2022-11-03T19:59:18.603Z,97932.78
2022-11-03T20:01:46.873Z,97928.81
2022-11-03T20:04:15.427Z,97938.63
2022-11-03T20:06:43.965Z,97916.38
2022-11-03T20:09:18.672Z,97907.28
2022-11-03T20:11:48.737Z,97910.38
2022-11-03T20:14:20.338Z,97906.78
2022-11-03T20:16:48.482Z,97894.38
2022-11-03T20:19:18.404Z,97889.81
2022-11-03T20:21:49.294Z,97883.69
2022-11-03T20:24:19.371Z,97884.16
2022-11-03T20:26:49.130Z,97904.75
2022-11-03T20:29:17.952Z,97885.13
2022-11-03T20:31:46.453Z,97878.00
2022-11-03T20:34:17.807Z,97873.59
2022-11-03T20:36:48.145Z,97873.97
2022-11-03T20:39:19.189Z,97875.09
2022-11-03T20:41:51.847Z,97876.75
2022-11-03T20:44:20.508Z,97870.19
2022-11-03T20:46:48.695Z,97880.91
2022-11-03T20:49:17.771Z,97881.72
2022-11-03T20:51:47.990Z,97885.50
2022-11-03T20:54:19.302Z,97871.88
2022-11-03T20:56:49.668Z,97873.94
2022-11-03T20:59:23.340Z,97870.44
2022-11-03T21:01:53.870Z,97855.53
2022-11-03T21:04:22.610Z,97855.38
2022-11-03T21:06:51.045Z,97853.16
2022-11-03T21:09:20.942Z,97855.78
2022-11-03T21:11:53.607Z,97862.31
2022-11-03T21:14:25.604Z,97868.63
2022-11-03T21:17:11.544Z,97869.47
2022-11-03T21:19:57.331Z,97877.31
2022-11-03T21:22:51.250Z,97879.72
2022-11-03T21:25:21.966Z,97875.66
2022-11-03T21:27:53.724Z,97883.06
2022-11-03T21:30:23.717Z,97876.41
2022-11-03T21:32:52.099Z,97854.06
2022-11-03T21:35:22.871Z,97851.16
2022-11-03T21:37:51.350Z,97854.38
2022-11-03T21:40:19.882Z,97845.16
2022-11-03T21:43:05.089Z,97843.50
2022-11-03T21:45:35.053Z,97837.88
2022-11-03T21:48:35.594Z,97836.38
2022-11-03T21:51:05.770Z,97837.09
2022-11-03T21:53:34.575Z,97839.69
2022-11-03T21:56:03.207Z,97834.41
2022-11-03T21:58:34.255Z,97844.44
2022-11-03T22:01:06.454Z,97836.53
2022-11-03T22:03:35.219Z,97842.53
2022-11-03T22:06:06.932Z,97847.25
2022-11-03T22:08:36.047Z,97841.97
2022-11-03T22:11:26.827Z,97848.81
2022-11-03T22:13:58.207Z,97847.97
2022-11-03T22:16:43.101Z,97859.78
2022-11-03T22:19:42.959Z,97859.41
2022-11-03T22:22:31.434Z,97849.94
2022-11-03T22:25:16.877Z,97855.50
2022-11-03T22:27:45.992Z,97842.84
2022-11-03T22:30:31.970Z,97848.13
2022-11-03T22:33:03.158Z,97859.13
2022-11-03T22:35:48.557Z,97872.50
2022-11-03T22:38:21.153Z,97869.34
2022-11-03T22:41:06.923Z,97877.97
2022-11-03T22:43:55.197Z,97882.31
2022-11-03T22:46:23.473Z,97885.66
2022-11-03T22:48:55.128Z,97883.97
2022-11-03T22:51:23.557Z,97874.34
2022-11-03T22:54:09.129Z,97881.75
2022-11-03T22:56:38.157Z,97871.91
2022-11-03T22:59:07.429Z,97869.16
2022-11-03T23:01:36.755Z,97857.44
2022-11-03T23:04:13.236Z,97864.56
2022-11-03T23:06:43.627Z,97875.06
2022-11-03T23:09:12.465Z,97877.28
2022-11-03T23:11:41.136Z,97897.38
2022-11-03T23:14:11.427Z,97894.00
2022-11-03T23:16:44.030Z,97910.91
2022-11-03T23:19:34.281Z,97899.47
2022-11-03T23:22:03.358Z,97892.56
2022-11-03T23:24:49.130Z,97914.09
2022-11-03T23:27:22.672Z,97900.97
2022-11-03T23:29:53.002Z,97909.94
2022-11-03T23:32:22.137Z,97904.34
2022-11-03T23:34:52.057Z,97904.19
2022-11-03T23:37:21.416Z,97921.72
2022-11-03T23:39:50.128Z,97913.38
2022-11-03T23:42:18.249Z,97919.34
2022-11-03T23:45:03.751Z,97921.38
2022-11-03T23:47:49.028Z,97932.09
2022-11-03T23:50:19.552Z,97930.03
2022-11-03T23:52:48.518Z,97924.41
2022-11-03T23:55:17.374Z,97925.84
2022-11-03T23:58:03.646Z,97942.47
